Time;durP1;ratioP1;P1;durP2;ratioP2;P2;SDS_P1;SDS_P2;PMS_P1;PMS_P2;Temp;Humidity;BMP_temperature;BMP_pressure;BME280_temperature;BME280_humidity;BME280_pressure;Samples;Min_cycle;Max_cycle;Signal;HPM_P1;HPM_P2
2022/04/03 02:34:01;;;;;;;15.75;10.48;;;;;;;1.55;100.00;93582.91;5016544;28;20034;-95
2022/04/03 02:36:26;;;;;;;17.75;10.15;;;;;;;1.49;100.00;93585.63;5000950;28;20026;-94
2022/04/03 02:38:52;;;;;;;21.90;10.38;;;;;;;1.39;100.00;93587.03;4984487;28;20053;-93
2022/04/03 02:41:19;;;;;;;20.15;9.93;;;;;;;1.45;100.00;93590.50;4984707;28;20124;-95
2022/04/03 02:43:45;;;;;;;16.33;9.70;;;;;;;1.68;100.00;93596.56;4984724;28;20038;-93
2022/04/03 02:46:12;;;;;;;17.20;9.73;;;;;;;1.57;100.00;93605.94;4984445;28;20061;-91
2022/04/03 02:48:37;;;;;;;14.80;9.60;;;;;;;1.42;100.00;93601.25;5017776;28;20121;-92
2022/04/03 02:51:03;;;;;;;14.27;10.02;;;;;;;1.49;100.00;93608.88;4984424;28;20183;-91
2022/04/03 02:53:28;;;;;;;21.15;11.55;;;;;;;1.45;100.00;93610.34;5000799;28;20430;-94
2022/04/03 02:55:54;;;;;;;19.58;10.88;;;;;;;1.41;100.00;93617.75;5000489;28;20071;-93
2022/04/03 02:58:19;;;;;;;20.25;11.02;;;;;;;1.49;100.00;93620.00;4984306;28;20033;-92
2022/04/03 03:00:46;;;;;;;17.05;10.60;;;;;;;1.61;100.00;93625.09;4984293;28;20041;-93
2022/04/03 03:03:16;;;;;;;17.08;10.52;;;;;;;1.50;100.00;93629.31;4984356;28;20036;-93
2022/04/03 03:05:48;;;;;;;19.88;10.93;;;;;;;1.36;100.00;93625.41;5000341;28;20033;-93
2022/04/03 03:08:14;;;;;;;20.58;11.20;;;;;;;1.40;100.00;93624.72;4985200;28;20022;-91
2022/04/03 03:10:39;;;;;;;24.17;11.50;;;;;;;1.67;100.00;93629.38;4984446;28;20030;-94
2022/04/03 03:13:05;;;;;;;21.80;12.23;;;;;;;1.78;100.00;93627.75;5001742;28;20434;-91
2022/04/03 03:15:31;;;;;;;19.95;10.88;;;;;;;1.64;100.00;93634.22;5003734;28;20029;-92
2022/04/03 03:17:57;;;;;;;18.75;10.52;;;;;;;1.73;100.00;93640.59;5003377;28;20033;-91
2022/04/03 03:20:23;;;;;;;21.10;11.00;;;;;;;1.48;100.00;93641.66;5003404;28;20036;-92
2022/04/03 03:22:48;;;;;;;23.58;11.73;;;;;;;1.60;100.00;93646.78;5003391;28;20032;-92
2022/04/03 03:25:14;;;;;;;23.15;11.77;;;;;;;1.47;100.00;93652.19;5019856;28;20025;-93
2022/04/03 03:27:43;;;;;;;22.55;11.45;;;;;;;1.50;100.00;93651.72;5005771;28;20431;-93
2022/04/03 03:30:16;;;;;;;22.40;11.18;;;;;;;1.59;100.00;93654.78;5023472;28;20178;-90
2022/04/03 03:32:42;;;;;;;22.70;11.45;;;;;;;1.55;100.00;93649.28;5008233;28;20343;-91
2022/04/03 03:35:08;;;;;;;19.83;12.02;;;;;;;1.61;100.00;93663.84;5007682;28;20067;-92
2022/04/03 03:37:34;;;;;;;21.40;11.52;;;;;;;1.80;100.00;93667.06;5007179;28;20037;-91
2022/04/03 03:39:59;;;;;;;19.75;11.82;;;;;;;1.77;100.00;93670.09;5007317;28;20071;-92
2022/04/03 03:42:25;;;;;;;22.13;12.98;;;;;;;1.68;100.00;93674.03;5023348;28;20044;-93
2022/04/03 03:44:51;;;;;;;26.23;13.35;;;;;;;1.74;100.00;93672.34;5007541;28;20033;-92
2022/04/03 03:47:16;;;;;;;27.25;15.38;;;;;;;1.59;100.00;93676.19;5023604;28;20110;-90
2022/04/03 03:49:42;;;;;;;29.70;16.42;;;;;;;1.46;100.00;93684.19;5007094;28;20430;-92
2022/04/03 03:52:07;;;;;;;35.15;18.45;;;;;;;1.58;100.00;93686.75;5006957;28;20036;-92
2022/04/03 03:54:33;;;;;;;33.15;17.30;;;;;;;1.67;100.00;93687.97;5007073;28;20037;-90
2022/04/03 03:56:58;;;;;;;37.85;18.10;;;;;;;1.44;100.00;93701.72;5006750;28;20148;-92
2022/04/03 03:59:24;;;;;;;32.70;18.23;;;;;;;1.48;100.00;93708.78;5022853;28;20456;-92
2022/04/03 04:01:50;;;;;;;31.10;16.58;;;;;;;1.49;100.00;93697.44;5023037;28;20040;-92
2022/04/03 04:04:15;;;;;;;24.80;15.88;;;;;;;1.65;100.00;93690.81;5023172;28;20346;-92
2022/04/03 04:06:41;;;;;;;21.95;13.55;;;;;;;1.71;100.00;93701.22;5006737;28;20037;-91
2022/04/03 04:09:06;;;;;;;23.13;13.52;;;;;;;1.64;100.00;93707.28;5022793;28;20144;-91
2022/04/03 04:11:32;;;;;;;23.65;14.77;;;;;;;1.71;100.00;93711.56;5006644;28;20087;-91
2022/04/03 04:17:19;;;;;;;27.80;15.50;;;;;;;1.64;100.00;93722.00;5040242;28;20047;-90
2022/04/03 04:19:45;;;;;;;24.70;14.63;;;;;;;1.60;100.00;93720.91;5022616;28;20029;-91
2022/04/03 04:22:10;;;;;;;23.88;15.63;;;;;;;1.34;100.00;93722.94;5006750;28;20128;-92
2022/04/03 04:24:36;;;;;;;25.15;16.38;;;;;;;1.44;100.00;93730.91;5006510;28;20026;-92
2022/04/03 04:27:02;;;;;;;27.25;16.75;;;;;;;1.36;100.00;93736.38;5006789;28;20030;-93
2022/04/03 04:29:30;;;;;;;30.15;17.90;;;;;;;1.32;100.00;93733.47;5006250;28;20021;-92
2022/04/03 04:31:55;;;;;;;29.58;17.60;;;;;;;1.26;100.00;93744.69;5022581;28;20127;-91
2022/04/03 04:34:21;;;;;;;31.70;17.58;;;;;;;1.21;100.00;93742.78;5006378;28;20128;-94
2022/04/03 04:36:47;;;;;;;29.80;18.73;;;;;;;1.40;100.00;93743.47;5022780;28;20033;-91
2022/04/03 04:39:12;;;;;;;33.38;19.55;;;;;;;1.34;100.00;93754.69;5006129;28;20037;-93
2022/04/03 04:41:38;;;;;;;33.90;19.42;;;;;;;1.47;100.00;93752.88;5006352;28;20025;-92
2022/04/03 04:44:03;;;;;;;31.70;18.65;;;;;;;1.36;100.00;93747.50;5006275;28;20029;-93
2022/04/03 04:46:29;;;;;;;34.95;21.08;;;;;;;1.22;100.00;93759.84;5006234;28;20418;-90
2022/04/03 04:48:54;;;;;;;36.92;22.08;;;;;;;1.17;100.00;93758.94;4995106;28;20061;-91
2022/04/03 04:51:20;;;;;;;35.45;20.95;;;;;;;1.23;100.00;93763.22;4986558;28;20041;-93
2022/04/03 04:53:45;;;;;;;34.97;20.75;;;;;;;1.15;100.00;93771.28;4986469;28;20430;-91
2022/04/03 04:56:12;;;;;;;33.22;19.75;;;;;;;1.13;100.00;93772.28;5002593;28;20030;-91
2022/04/03 04:58:37;;;;;;;34.03;19.23;;;;;;;1.34;100.00;93771.97;4986490;28;20435;-93
2022/04/03 05:01:03;;;;;;;35.83;20.63;;;;;;;1.35;100.00;93773.53;4986580;28;20084;-91
2022/04/03 05:03:28;;;;;;;34.53;19.17;;;;;;;1.28;100.00;93778.81;5002201;28;20029;-92
2022/04/03 05:05:55;;;;;;;34.13;19.75;;;;;;;1.31;100.00;93790.50;4986139;28;20473;-93
2022/04/03 05:08:20;;;;;;;34.45;20.40;;;;;;;1.29;100.00;93789.91;5002384;28;20096;-90
2022/04/03 05:10:46;;;;;;;44.00;23.50;;;;;;;1.01;100.00;93788.75;4985978;28;20025;-92
2022/04/03 05:13:12;;;;;;;40.45;22.27;;;;;;;1.32;100.00;93803.16;5002220;28;20026;-92
2022/04/03 05:15:38;;;;;;;36.22;21.10;;;;;;;1.34;100.00;93790.03;4985980;28;20030;-91
2022/04/03 05:18:04;;;;;;;44.10;23.27;;;;;;;1.52;100.00;93800.25;4985858;28;20125;-93
2022/04/03 05:20:29;;;;;;;44.42;22.67;;;;;;;1.69;100.00;93797.78;4986096;28;20390;-92
2022/04/03 05:22:55;;;;;;;38.75;21.40;;;;;;;1.64;100.00;93802.06;4985879;28;20033;-91
2022/04/03 05:25:20;;;;;;;33.20;17.35;;;;;;;1.88;100.00;93812.38;4986123;28;20136;-91
2022/04/03 05:27:46;;;;;;;34.70;19.65;;;;;;;1.70;100.00;93811.47;5001682;28;20087;-92
2022/04/03 05:30:13;;;;;;;36.47;20.42;;;;;;;2.00;100.00;93813.13;4985793;28;20033;-92
2022/04/03 05:32:38;;;;;;;31.10;18.40;;;;;;;1.97;100.00;93816.19;4985561;28;20128;-93
2022/04/03 05:35:05;;;;;;;27.60;17.25;;;;;;;1.91;100.00;93819.69;4985665;28;20060;-91
2022/04/03 05:37:32;;;;;;;33.67;16.88;;;;;;;1.64;100.00;93827.88;4985526;28;20030;-91
2022/04/03 05:39:57;;;;;;;37.60;19.05;;;;;;;1.50;100.00;93842.78;4985648;28;20033;-91
2022/04/03 05:42:23;;;;;;;39.03;21.05;;;;;;;1.43;100.00;93848.06;4985421;28;20036;-90
2022/04/03 05:44:48;;;;;;;56.35;22.92;;;;;;;1.53;100.00;93850.88;5018713;28;20029;-92
2022/04/03 05:47:17;;;;;;;35.17;20.05;;;;;;;1.68;100.00;93850.47;5001402;28;20029;-92
2022/04/03 05:49:44;;;;;;;27.50;17.20;;;;;;;1.73;100.00;93846.41;5000894;28;20026;-90
2022/04/03 05:52:09;;;;;;;30.58;18.88;;;;;;;1.70;100.00;93850.22;4985099;28;20026;-91
2022/04/03 05:54:35;;;;;;;29.85;17.35;;;;;;;1.54;100.00;93849.09;4985571;28;20040;-90
2022/04/03 05:57:00;;;;;;;26.42;15.25;;;;;;;1.79;100.00;93851.47;4985111;28;20429;-91
2022/04/03 05:59:26;;;;;;;23.38;14.23;;;;;;;1.67;100.00;93853.25;5001075;28;20030;-90
2022/04/03 06:01:52;;;;;;;26.80;15.93;;;;;;;1.47;100.00;93864.69;4985145;28;20439;-91
2022/04/03 06:04:17;;;;;;;26.75;15.23;;;;;;;1.43;100.00;93868.72;4984651;28;20030;-91
2022/04/03 06:06:42;;;;;;;27.85;16.52;;;;;;;1.78;100.00;93875.72;4985120;28;20088;-91
2022/04/03 06:09:08;;;;;;;30.83;16.30;;;;;;;1.84;100.00;93867.06;4984824;28;20026;-93
2022/04/03 06:11:34;;;;;;;28.13;16.20;;;;;;;1.93;100.00;93877.06;5000732;28;20029;-89
2022/04/03 06:14:00;;;;;;;29.83;17.40;;;;;;;1.84;100.00;93871.47;5000721;28;20038;-91
2022/04/03 06:16:26;;;;;;;29.55;16.60;;;;;;;1.67;100.00;93868.75;5000722;28;20026;-90
2022/04/03 06:18:55;;;;;;;30.58;17.20;;;;;;;1.48;100.00;93879.19;5001374;28;20034;-92
2022/04/03 06:21:20;;;;;;;35.17;18.02;;;;;;;1.91;100.00;93876.53;5000680;28;20026;-90
2022/04/03 06:23:46;;;;;;;31.00;16.70;;;;;;;1.79;100.00;93876.50;5000962;28;20029;-91
2022/04/03 06:26:13;;;;;;;28.95;16.23;;;;;;;1.90;100.00;93880.13;5000706;28;20026;-90
2022/04/03 06:28:38;;;;;;;25.95;16.05;;;;;;;1.88;100.00;93884.72;5000573;28;20426;-91
2022/04/03 06:31:05;;;;;;;22.88;14.38;;;;;;;1.98;100.00;93884.94;5000772;28;20201;-91
2022/04/03 06:33:32;;;;;;;20.60;13.88;;;;;;;2.05;100.00;93888.19;5017955;28;20034;-91
2022/04/03 06:36:00;;;;;;;20.85;12.18;;;;;;;2.21;100.00;93886.72;5000330;28;20033;-91
2022/04/03 06:38:26;;;;;;;19.95;12.98;;;;;;;2.28;100.00;93889.19;5017721;28;20120;-90
2022/04/03 06:40:55;;;;;;;20.98;12.65;;;;;;;2.25;100.00;93895.59;4984596;28;20502;-90
2022/04/03 06:43:25;;;;;;;18.92;12.50;;;;;;;2.22;100.00;93897.84;4984157;28;20104;-90
2022/04/03 06:45:53;;;;;;;22.17;12.95;;;;;;;2.18;100.00;93905.25;4984307;28;20343;-92
2022/04/03 06:48:19;;;;;;;20.45;12.40;;;;;;;2.20;100.00;93905.06;4984280;28;20072;-91
2022/04/03 06:50:44;;;;;;;19.52;13.00;;;;;;;2.00;100.00;93919.06;5000356;28;20136;-91
2022/04/03 06:53:13;;;;;;;19.30;12.38;;;;;;;2.66;100.00;93915.56;4983602;28;20059;-89
2022/04/03 06:55:42;;;;;;;23.33;13.75;;;;;;;2.47;100.00;93912.34;5001303;28;20026;-92
2022/04/03 06:58:07;;;;;;;21.20;13.35;;;;;;;2.67;100.00;93912.72;5019837;28;20033;-91
2022/04/03 07:00:42;;;;;;;22.23;12.77;;;;;;;2.76;100.00;93926.09;5019739;28;20037;-89
2022/04/03 07:03:08;;;;;;;30.65;17.40;;;;;;;2.51;100.00;93926.38;5019901;28;20335;-91
2022/04/03 07:05:36;;;;;;;30.70;16.35;;;;;;;2.39;100.00;93929.75;5003509;28;20029;-92
2022/04/03 07:08:12;;;;;;;27.45;16.55;;;;;;;2.53;100.00;93926.94;5020287;28;20026;-90
2022/04/03 07:10:40;;;;;;;27.42;16.83;;;;;;;2.87;100.00;93931.47;5019734;28;20029;-92
2022/04/03 07:13:05;;;;;;;21.80;13.32;;;;;;;2.88;100.00;93936.44;5003320;28;20069;-91
2022/04/03 07:15:31;;;;;;;23.55;13.52;;;;;;;3.14;100.00;93942.06;5019641;28;20442;-91
2022/04/03 07:17:57;;;;;;;18.73;12.55;;;;;;;3.16;100.00;93932.31;5003449;28;20083;-90
2022/04/03 07:20:25;;;;;;;19.15;11.88;;;;;;;3.05;100.00;93949.41;5019277;28;20030;-91
2022/04/03 07:22:51;;;;;;;17.63;11.55;;;;;;;3.52;100.00;93947.69;5019221;28;20042;-92
2022/04/03 07:25:18;;;;;;;16.45;10.60;;;;;;;3.60;100.00;93943.94;5019709;28;20128;-89
2022/04/03 07:27:45;;;;;;;19.17;11.35;;;;;;;3.47;100.00;93948.38;5003170;28;20044;-90
2022/04/03 07:30:12;;;;;;;16.67;10.75;;;;;;;3.35;100.00;93952.81;5003166;28;20036;-90
2022/04/03 07:32:38;;;;;;;17.27;10.70;;;;;;;3.55;100.00;93962.75;5036593;28;20134;-90
2022/04/03 07:35:06;;;;;;;16.40;10.45;;;;;;;3.97;100.00;93964.22;5003103;28;20508;-92
2022/04/03 07:37:34;;;;;;;14.88;9.63;;;;;;;4.29;100.00;93968.06;5037016;28;20080;-93
2022/04/03 07:40:03;;;;;;;12.05;8.73;;;;;;;4.01;100.00;93972.31;5019783;28;20029;-94
2022/04/03 07:42:39;;;;;;;;;;;;;;;;;;;;;
2022/04/03 07:45:11;;;;;;;16.38;10.60;;;;;;;3.31;100.00;93980.19;5020974;28;20098;-92
2022/04/03 07:47:49;;;;;;;15.05;10.15;;;;;;;3.74;100.00;93981.47;5019752;28;20056;-92
2022/04/03 07:50:23;;;;;;;14.10;9.43;;;;;;;3.58;100.00;93983.00;5020077;28;20030;-94
2022/04/03 07:52:49;;;;;;;13.75;9.55;;;;;;;3.38;100.00;93997.19;5003473;28;20029;-94
2022/04/03 07:55:19;;;;;;;15.73;9.15;;;;;;;3.66;100.00;93997.41;4986938;28;20469;-93
2022/04/03 16:37:58;;;;;;;4.72;2.67;;;;;;;6.17;100.00;94131.16;859033;22;20346;31
2022/04/03 16:40:23;;;;;;;5.22;2.85;;;;;;;6.28;100.00;94132.06;5001523;28;20045;-95
2022/04/03 16:42:49;;;;;;;6.88;2.72;;;;;;;6.33;100.00;94132.09;5003102;28;20044;-94
2022/04/03 16:45:16;;;;;;;4.85;2.58;;;;;;;6.31;100.00;94137.56;5003018;28;20026;-94
2022/04/03 16:47:42;;;;;;;8.32;3.75;;;;;;;6.19;100.00;94136.91;5003772;28;20040;-93
2022/04/03 16:50:10;;;;;;;8.10;4.45;;;;;;;5.90;100.00;94144.91;5006579;28;20064;-94
2022/04/03 16:52:38;;;;;;;7.53;3.95;;;;;;;5.87;100.00;94142.78;5005237;28;20053;-95
2022/04/03 16:55:06;;;;;;;8.48;3.92;;;;;;;5.80;100.00;94143.75;5007266;28;20342;-93
2022/04/03 16:57:31;;;;;;;7.88;4.43;;;;;;;5.69;100.00;94141.28;5009563;28;20025;-94
2022/04/03 17:00:10;;;;;;;;;;;;;;;;;;;;;
2022/04/03 17:03:07;;;;;;;;;;;;;;;;;;;;;
2022/04/03 17:05:48;;;;;;;;;;;;;;;;;;;;;
2022/04/03 17:08:32;;;;;;;;;;;;;;;;;;;;;
2022/04/03 17:10:58;;;;;;;12.23;4.53;;;;;;;5.51;100.00;94158.72;5024955;28;20216;-92
2022/04/03 17:13:45;;;;;;;;;;;;;;;;;;;;;
2022/04/03 17:16:29;;;;;;;10.25;5.35;;;;;;;5.24;100.00;94157.59;5026044;28;20021;-91
2022/04/03 17:19:02;;;;;;;12.02;6.20;;;;;;;4.94;100.00;94156.13;4998142;28;20034;-91
2022/04/03 17:21:29;;;;;;;13.65;7.55;;;;;;;5.18;100.00;94160.34;5004216;28;20308;-91
2022/04/03 17:24:23;;;;;;;11.55;6.40;;;;;;;5.08;100.00;94156.56;4988400;28;20070;-91
2022/04/03 17:27:05;;;;;;;;;;;;;;;;;;;;;
2022/04/03 17:29:38;;;;;;;12.45;5.80;;;;;;;4.76;100.00;94156.34;5005602;28;20105;-93
2022/04/03 17:32:22;;;;;;;;;;;;;;;;;;;;;
2022/04/03 17:34:47;;;;;;;9.35;5.18;;;;;;;4.72;100.00;94160.44;5004836;28;20022;-92
2022/04/03 17:37:16;;;;;;;14.90;5.40;;;;;;;4.65;100.00;94153.59;4987801;28;20061;-92
2022/04/03 17:39:51;;;;;;;16.58;5.68;;;;;;;4.69;100.00;94155.72;5002388;28;20087;-92
2022/04/03 17:42:29;;;;;;;12.07;6.03;;;;;;;4.69;100.00;94161.69;4987578;28;20080;-90
2022/04/03 17:45:27;;;;;;;;;;;;;;;;;;;;;
2022/04/03 17:48:00;;;;;;;12.13;6.00;;;;;;;5.06;100.00;94165.63;5025616;28;20160;-93
2022/04/03 17:50:35;;;;;;;;;;;;;;;4.99;100.00;94168.41;4992080;28;20042;-91
2022/04/03 17:53:10;;;;;;;;;;;;;;;4.92;100.00;94173.75;5008568;28;19981;-93
2022/04/03 17:56:07;;;;;;;;;;;;;;;;;;;;;
2022/04/03 17:58:58;;;;;;;14.98;5.18;;;;;;;4.90;100.00;94173.19;5010125;28;20081;-91
2022/04/03 18:01:28;;;;;;;12.40;5.38;;;;;;;4.99;100.00;94175.38;4986356;28;20084;-93
2022/04/03 18:03:53;;;;;;;10.00;6.03;;;;;;;4.97;100.00;94182.63;4985792;28;20121;-92
2022/04/03 18:06:19;;;;;;;9.27;5.80;;;;;;;5.04;100.00;94173.66;4985276;28;20057;-93
2022/04/03 18:08:44;;;;;;;13.55;6.13;;;;;;;5.00;100.00;94179.56;4985179;28;20026;-92
2022/04/03 18:11:15;;;;;;;10.18;5.78;;;;;;;4.97;100.00;94180.03;4985039;28;20130;-93
2022/04/03 18:13:43;;;;;;;14.15;6.75;;;;;;;5.15;100.00;94189.41;4985776;28;20072;-93
2022/04/03 18:16:11;;;;;;;13.18;7.00;;;;;;;5.18;100.00;94186.31;4985119;28;20032;-92
2022/04/03 18:18:37;;;;;;;15.52;7.82;;;;;;;5.17;100.00;94200.34;4984868;28;20053;-91
2022/04/03 18:21:03;;;;;;;18.15;9.57;;;;;;;4.97;100.00;94198.22;4985161;28;20128;-91
2022/04/03 18:23:29;;;;;;;22.25;11.00;;;;;;;4.84;100.00;94207.09;4984573;28;20092;-90
2022/04/03 18:25:58;;;;;;;24.63;10.88;;;;;;;4.85;100.00;94214.63;5018294;28;20056;-91
2022/04/03 18:28:30;;;;;;;25.20;11.77;;;;;;;4.97;100.00;94217.19;5001413;28;20058;-94
2022/04/03 18:30:57;;;;;;;18.45;10.40;;;;;;;4.92;100.00;94214.47;4985314;28;20034;-93
2022/04/03 18:33:23;;;;;;;16.40;9.25;;;;;;;4.80;100.00;94219.75;5001290;28;20049;-92
2022/04/03 18:35:49;;;;;;;18.05;8.82;;;;;;;4.87;100.00;94217.78;5000797;28;20378;-90
2022/04/03 18:38:15;;;;;;;17.08;8.82;;;;;;;4.70;100.00;94219.56;5000496;28;20040;-91
2022/04/03 18:40:40;;;;;;;22.95;8.88;;;;;;;4.80;100.00;94219.75;5000597;28;20036;-93
2022/04/03 18:43:06;;;;;;;18.90;9.35;;;;;;;4.78;100.00;94224.41;5000842;28;20083;-94
2022/04/03 18:45:33;;;;;;;18.20;8.70;;;;;;;4.90;100.00;94234.72;5017986;28;20032;-92
2022/04/03 18:47:59;;;;;;;21.73;8.57;;;;;;;4.83;100.00;94234.84;5000675;28;20079;-91
2022/04/03 18:50:27;;;;;;;17.77;8.70;;;;;;;4.71;100.00;94228.94;5017724;28;20030;-92
2022/04/03 18:52:56;;;;;;;14.90;7.43;;;;;;;4.76;100.00;94240.19;4984890;28;20469;-92
2022/04/03 18:55:23;;;;;;;17.52;6.97;;;;;;;4.69;100.00;94243.94;5017896;28;20049;-94
2022/04/03 18:57:50;;;;;;;13.77;7.30;;;;;;;4.39;100.00;94246.53;5017662;28;20030;-94
2022/04/03 19:00:23;;;;;;;14.30;7.20;;;;;;;4.42;100.00;94249.69;5000607;28;20124;-93
2022/04/03 19:02:49;;;;;;;15.57;6.77;;;;;;;4.23;100.00;94248.06;5017917;28;20034;-92
2022/04/03 19:05:16;;;;;;;17.73;7.10;;;;;;;4.45;100.00;94255.22;5000348;28;20029;-93
2022/04/03 19:07:41;;;;;;;12.93;6.70;;;;;;;4.56;100.00;94260.59;5000465;28;20128;-94
2022/04/03 19:10:08;;;;;;;11.13;6.25;;;;;;;4.55;100.00;94259.03;5017889;28;20061;-93
2022/04/03 19:12:39;;;;;;;14.35;8.13;;;;;;;4.60;100.00;94262.50;5000579;28;20494;-94
2022/04/03 19:15:05;;;;;;;16.65;7.45;;;;;;;4.62;100.00;94265.66;5000659;28;20025;-93
2022/04/03 19:17:32;;;;;;;16.13;6.78;;;;;;;4.67;100.00;94265.72;5000378;28;20030;-94
2022/04/03 19:19:58;;;;;;;11.50;6.47;;;;;;;4.58;100.00;94268.94;5017577;28;20085;-92
2022/04/03 19:22:24;;;;;;;11.82;7.13;;;;;;;4.63;100.00;94261.22;5000422;28;20052;-95
2022/04/03 19:24:50;;;;;;;10.85;5.43;;;;;;;4.54;100.00;94260.81;5000286;28;20030;-92
2022/04/03 19:27:15;;;;;;;10.40;6.15;;;;;;;4.54;100.00;94263.41;4984046;28;20108;-94
2022/04/03 19:29:43;;;;;;;10.55;5.53;;;;;;;4.61;100.00;94276.25;5017579;28;20404;-93
2022/04/03 19:32:09;;;;;;;10.77;5.65;;;;;;;4.62;100.00;94270.84;5017440;28;20026;-93
2022/04/03 19:34:35;;;;;;;13.13;6.05;;;;;;;4.67;100.00;94273.53;5017387;28;20025;-93
2022/04/03 19:37:03;;;;;;;10.93;5.07;;;;;;;4.50;100.00;94278.66;5000161;28;20025;-94
2022/04/03 19:39:30;;;;;;;10.38;5.63;;;;;;;4.26;100.00;94282.34;5000091;28;20044;-92
2022/04/03 19:41:58;;;;;;;9.82;5.07;;;;;;;3.94;100.00;94279.09;4999985;28;20423;-92
2022/04/03 19:44:28;;;;;;;10.50;5.53;;;;;;;3.84;100.00;94273.72;4984084;28;20398;-92
2022/04/03 19:46:56;;;;;;;11.65;5.70;;;;;;;3.76;100.00;94274.06;4984117;28;20383;-93
2022/04/03 19:49:26;;;;;;;9.38;5.50;;;;;;;3.64;100.00;94277.44;5000193;28;20411;-94
2022/04/03 19:51:56;;;;;;;14.57;5.47;;;;;;;3.78;100.00;94275.41;5000399;28;20045;-92
2022/04/03 19:54:22;;;;;;;10.95;5.03;;;;;;;3.82;100.00;94286.91;5000062;28;20426;-93
2022/04/03 19:56:48;;;;;;;11.63;5.60;;;;;;;3.93;100.00;94293.09;5000264;28;20088;-92
2022/04/03 19:59:13;;;;;;;14.15;6.00;;;;;;;3.75;100.00;94286.25;4983658;28;20077;-93
2022/04/03 20:01:39;;;;;;;14.88;6.82;;;;;;;3.68;100.00;94286.34;5017446;28;20177;-92
2022/04/03 20:04:05;;;;;;;14.00;6.32;;;;;;;3.52;100.00;94290.38;4999713;28;20447;-93
2022/04/03 20:06:33;;;;;;;10.27;6.10;;;;;;;3.41;100.00;94296.34;5017382;28;20048;-92
2022/04/03 20:08:59;;;;;;;9.38;5.60;;;;;;;3.42;100.00;94297.91;5018368;28;20029;-92
2022/04/03 20:11:25;;;;;;;13.27;6.03;;;;;;;3.67;100.00;94289.16;5003489;28;20419;-93
2022/04/03 20:13:51;;;;;;;13.27;6.43;;;;;;;3.51;100.00;94306.16;5003417;28;20037;-94
2022/04/03 20:16:17;;;;;;;13.55;7.15;;;;;;;3.34;100.00;94304.22;5003286;28;20097;-92
2022/04/03 20:18:43;;;;;;;12.10;7.35;;;;;;;3.30;100.00;94308.28;5003225;28;20060;-94
2022/04/03 20:21:12;;;;;;;15.27;7.30;;;;;;;3.36;100.00;94311.78;5003365;28;20026;-92
2022/04/03 20:23:38;;;;;;;11.90;6.55;;;;;;;3.38;100.00;94309.75;5003187;28;20088;-92
2022/04/03 20:26:04;;;;;;;15.30;6.97;;;;;;;3.35;100.00;94307.59;5003238;28;20378;-92
2022/04/03 20:28:30;;;;;;;11.50;6.75;;;;;;;3.38;100.00;94314.94;5003051;28;20057;-92
2022/04/03 20:30:56;;;;;;;14.82;7.70;;;;;;;3.53;100.00;94314.50;5002960;28;20052;-92
2022/04/03 20:33:22;;;;;;;12.88;6.72;;;;;;;3.67;100.00;94310.69;5002987;28;20061;-92
2022/04/03 20:35:48;;;;;;;21.17;10.52;;;;;;;3.86;100.00;94325.31;5003131;28;20120;-92
